createdAt,value
2023-01-03T00:01:28.645Z,1.17
2023-01-03T00:03:56.805Z,1.38
2023-01-03T00:06:25.062Z,1.10
2023-01-03T00:08:53.730Z,1.15
2023-01-03T00:11:44.260Z,1.20
2023-01-03T00:14:13.763Z,1.45
2023-01-03T00:16:40.981Z,1.50
2023-01-03T00:22:00.507Z,1.23
2023-01-03T00:24:27.316Z,1.27
2023-01-03T00:26:54.103Z,1.30
2023-01-03T00:29:20.936Z,1.40
2023-01-03T00:31:47.657Z,1.35
2023-01-03T00:34:14.311Z,1.30
2023-01-03T00:36:42.978Z,1.50
2023-01-03T00:39:12.192Z,1.30
2023-01-03T00:41:40.026Z,1.52
2023-01-03T00:44:07.182Z,1.30
2023-01-03T00:46:34.436Z,1.67
2023-01-03T00:49:01.810Z,1.35
2023-01-03T00:51:35.407Z,1.35
2023-01-03T00:54:05.558Z,1.42
2023-01-03T00:59:49.531Z,1.15
2023-01-03T01:02:17.057Z,1.40
2023-01-03T01:04:44.876Z,1.30
2023-01-03T01:07:12.875Z,1.45
2023-01-03T01:09:40.025Z,1.40
2023-01-03T01:12:07.684Z,1.60
2023-01-03T01:14:34.678Z,1.40
2023-01-03T01:17:06.645Z,1.50
2023-01-03T01:19:36.413Z,1.40
2023-01-03T01:22:03.864Z,1.60
2023-01-03T01:24:31.067Z,1.83
2023-01-03T01:26:58.350Z,1.50
2023-01-03T01:29:25.294Z,1.63
2023-01-03T01:31:52.976Z,1.45
2023-01-03T01:34:20.238Z,1.55
2023-01-03T01:36:47.395Z,1.70
2023-01-03T01:39:17.489Z,1.60
2023-01-03T01:42:04.229Z,1.60
2023-01-03T01:44:48.907Z,1.88
2023-01-03T01:47:31.292Z,1.50
2023-01-03T01:50:10.706Z,1.60
2023-01-03T01:52:40.529Z,1.80
2023-01-03T01:55:19.636Z,1.80
2023-01-03T01:57:47.172Z,1.77
2023-01-03T02:00:20.272Z,1.70
2023-01-03T02:02:49.994Z,2.00
2023-01-03T02:05:30.041Z,1.55
2023-01-03T02:07:57.973Z,1.83
2023-01-03T02:10:59.541Z,1.58
2023-01-03T02:14:05.284Z,1.92
2023-01-03T02:16:58.342Z,1.70
2023-01-03T02:19:53.711Z,1.80
2023-01-03T02:22:51.125Z,1.98
2023-01-03T02:25:56.863Z,1.98
2023-01-03T02:29:06.909Z,2.00
2023-01-03T02:31:46.696Z,1.95
2023-01-03T02:40:49.020Z,3.10
2023-01-03T02:43:22.721Z,2.33
2023-01-03T07:54:07.314Z,2.97
2023-01-03T07:56:33.869Z,3.45
2023-01-03T07:59:00.251Z,3.70
2023-01-03T08:01:26.898Z,3.25
2023-01-03T08:03:53.681Z,3.42
2023-01-03T08:06:22.627Z,3.67
2023-01-03T08:09:08.250Z,3.28
2023-01-03T08:11:53.361Z,3.42
2023-01-03T08:14:25.257Z,3.17
2023-01-03T08:16:52.801Z,3.20
2023-01-03T08:19:19.258Z,2.80
2023-01-03T08:21:45.769Z,2.97
2023-01-03T08:24:12.202Z,2.80
2023-01-03T08:26:38.671Z,2.97
2023-01-03T08:29:05.076Z,2.42
2023-01-03T08:31:32.940Z,2.40
2023-01-03T08:34:06.349Z,2.15
2023-01-03T08:36:41.490Z,1.90
2023-01-03T08:39:11.842Z,2.53
2023-01-03T08:41:40.388Z,2.47
2023-01-03T08:44:08.570Z,2.10
2023-01-03T08:46:35.333Z,1.90
2023-01-03T08:49:01.936Z,1.70
2023-01-03T08:51:29.848Z,1.60
2023-01-03T08:53:56.597Z,1.70
2023-01-03T08:56:23.023Z,1.60
2023-01-03T08:58:49.547Z,1.55
2023-01-03T09:01:17.108Z,1.40
2023-01-03T09:03:43.935Z,1.30
2023-01-03T09:06:10.592Z,1.30
2023-01-03T09:08:37.008Z,1.33
2023-01-03T09:11:07.335Z,1.17
2023-01-03T09:13:34.140Z,1.27
2023-01-03T09:16:05.188Z,1.27
2023-01-03T09:18:31.735Z,1.05
2023-01-03T09:20:58.166Z,1.40
2023-01-03T09:23:24.636Z,1.42
2023-01-03T09:25:51.120Z,1.40
2023-01-03T09:28:17.575Z,1.38
2023-01-03T09:30:44.106Z,1.50
2023-01-03T09:33:10.646Z,1.38
2023-01-03T09:35:37.685Z,1.33
2023-01-03T09:38:04.136Z,1.52
2023-01-03T09:40:32.205Z,1.70
2023-01-03T09:43:21.410Z,1.80
2023-01-03T09:45:51.766Z,1.77
2023-01-03T09:48:33.823Z,1.95
2023-01-03T09:51:21.269Z,2.28
2023-01-03T09:54:05.779Z,2.30
2023-01-03T09:56:50.738Z,2.03
2023-01-03T09:59:36.348Z,2.80
2023-01-03T10:02:53.770Z,2.33
2023-01-03T10:05:58.560Z,2.50
2023-01-03T10:08:41.795Z,2.58
2023-01-03T10:11:12.242Z,3.08
2023-01-03T10:13:58.070Z,2.70
2023-01-03T10:16:35.515Z,2.70
2023-01-03T10:19:33.848Z,2.50
2023-01-03T10:22:13.368Z,2.40
2023-01-03T10:27:27.717Z,2.17
2023-01-03T10:29:55.899Z,2.40
2023-01-03T10:32:25.243Z,2.45
2023-01-03T10:37:40.356Z,2.53
2023-01-03T10:40:07.490Z,2.47
2023-01-03T10:42:35.051Z,2.53
2023-01-03T10:45:05.545Z,2.47
2023-01-03T10:47:32.007Z,2.83
2023-01-03T10:50:00.499Z,2.38
2023-01-03T10:52:33.412Z,2.50
2023-01-03T10:55:01.872Z,2.30
2023-01-03T10:57:48.118Z,2.50
2023-01-03T11:00:21.703Z,2.35
2023-01-03T11:02:49.224Z,2.53
2023-01-03T11:05:18.065Z,2.50
2023-01-03T11:07:45.826Z,2.65
2023-01-03T11:10:18.960Z,2.70
2023-01-03T11:12:46.747Z,2.70
2023-01-03T11:15:25.943Z,2.25
2023-01-03T11:17:57.089Z,2.72
2023-01-03T11:20:42.202Z,2.85
2023-01-03T11:23:16.981Z,2.88
2023-01-03T11:25:53.868Z,2.88
2023-01-03T11:28:48.172Z,3.53
2023-01-03T11:31:51.564Z,3.65
2023-01-03T11:35:12.030Z,3.35
2023-01-03T11:37:38.414Z,3.90
2023-01-03T11:40:46.286Z,3.78
2023-01-03T11:43:42.163Z,3.78
2023-01-03T11:46:17.068Z,3.60
2023-01-03T11:48:54.113Z,4.07
2023-01-03T11:51:36.488Z,4.10
2023-01-03T11:54:08.707Z,4.18
2023-01-03T11:56:40.461Z,4.07
2023-01-03T11:59:13.817Z,3.55
2023-01-03T12:02:18.245Z,3.78
2023-01-03T12:05:03.277Z,3.90
2023-01-03T12:07:48.128Z,5.50
2023-01-03T12:10:16.407Z,3.33
2023-01-03T12:13:10.154Z,4.13
2023-01-03T12:15:45.415Z,4.47
2023-01-03T12:18:45.552Z,3.60
2023-01-03T12:21:20.527Z,3.10
2023-01-03T12:24:06.888Z,3.40
2023-01-03T12:26:35.014Z,3.50
2023-01-03T12:29:05.853Z,3.28
2023-01-03T12:31:51.559Z,3.03
2023-01-03T12:34:44.941Z,3.17
2023-01-03T12:37:19.645Z,3.28
2023-01-03T12:39:57.497Z,3.63
2023-01-03T12:42:35.740Z,3.80
2023-01-03T12:45:08.132Z,4.00
2023-01-03T12:47:40.656Z,3.80
2023-01-03T12:50:24.741Z,3.70
2023-01-03T12:52:58.338Z,3.63
2023-01-03T12:55:39.245Z,3.53
2023-01-03T12:58:22.644Z,3.65
2023-01-03T13:00:57.530Z,3.60
2023-01-03T13:03:28.948Z,3.80
2023-01-03T13:06:00.843Z,3.58
2023-01-03T13:08:31.917Z,3.75
2023-01-03T13:11:01.380Z,3.85
2023-01-03T13:13:28.832Z,3.67
2023-01-03T13:15:55.292Z,3.60
2023-01-03T13:18:21.702Z,3.30
2023-01-03T13:20:50.378Z,3.17
2023-01-03T13:23:32.144Z,3.30
2023-01-03T13:26:07.495Z,3.28
2023-01-03T13:28:38.013Z,3.20
2023-01-03T13:31:14.266Z,3.00
2023-01-03T13:33:55.126Z,3.10
2023-01-03T13:36:22.764Z,2.92
2023-01-03T13:38:49.246Z,2.67
2023-01-03T13:41:37.440Z,3.08
2023-01-03T13:44:20.983Z,3.28
2023-01-03T13:46:48.163Z,2.80
2023-01-03T13:49:19.925Z,2.97
2023-01-03T13:51:59.161Z,3.33
2023-01-03T13:57:02.861Z,2.88
2023-01-03T13:59:44.226Z,2.50
2023-01-03T14:02:13.383Z,1.95
2023-01-03T14:05:01.197Z,2.70
2023-01-03T14:07:47.654Z,3.20
2023-01-03T14:10:48.288Z,2.70
2023-01-03T14:13:47.040Z,2.95
2023-01-03T14:16:30.888Z,2.45
2023-01-03T14:19:13.249Z,3.55
2023-01-03T14:21:47.237Z,3.50
2023-01-03T14:24:18.351Z,3.22
2023-01-03T14:26:45.015Z,3.40
2023-01-03T14:29:17.168Z,3.58
2023-01-03T14:31:47.079Z,3.40
2023-01-03T14:34:37.640Z,3.28
2023-01-03T14:37:24.898Z,3.17
2023-01-03T14:39:55.962Z,2.70
2023-01-03T14:42:22.938Z,2.75
2023-01-03T14:44:56.014Z,2.50
2023-01-03T14:47:23.233Z,2.60
2023-01-03T14:49:52.542Z,2.72
2023-01-03T14:54:51.008Z,2.75
2023-01-03T14:57:20.333Z,2.67
2023-01-03T15:02:14.260Z,2.53
2023-01-03T15:04:49.433Z,2.47
2023-01-03T15:07:45.350Z,2.33
2023-01-03T15:10:11.655Z,2.47
2023-01-03T15:12:48.627Z,2.00
2023-01-03T15:15:22.958Z,1.80
2023-01-03T15:17:52.409Z,2.22
2023-01-03T15:20:22.878Z,2.10
2023-01-03T15:22:49.379Z,1.98
2023-01-03T15:25:21.555Z,2.28
2023-01-03T15:27:49.746Z,2.05
2023-01-03T15:30:17.110Z,2.72
2023-01-03T15:32:51.593Z,2.20
2023-01-03T15:35:30.335Z,2.20
2023-01-03T15:37:57.052Z,2.53
2023-01-03T15:40:24.001Z,2.58
2023-01-03T15:43:09.243Z,2.88
2023-01-03T15:45:41.060Z,3.55
2023-01-03T15:48:13.913Z,3.83
2023-01-03T15:50:47.794Z,5.72
2023-01-03T15:53:23.675Z,4.30
2023-01-03T15:55:52.211Z,4.45
2023-01-03T15:58:18.654Z,4.63
2023-01-03T16:00:45.164Z,4.38
2023-01-03T16:03:21.516Z,3.92
2023-01-03T16:05:48.203Z,4.30
2023-01-03T16:08:29.950Z,3.90
2023-01-03T16:10:57.096Z,4.00
2023-01-03T16:13:25.760Z,4.07
2023-01-03T16:15:52.632Z,4.30
2023-01-03T16:18:26.687Z,4.22
2023-01-03T16:20:55.193Z,4.30
2023-01-03T16:23:25.715Z,4.05
2023-01-03T16:25:52.381Z,3.97
2023-01-03T16:28:18.811Z,3.88
2023-01-03T16:30:45.406Z,4.60
2023-01-03T16:33:20.407Z,4.32
2023-01-03T16:35:47.757Z,4.63
2023-01-03T16:38:14.445Z,4.35
2023-01-03T16:40:41.400Z,3.90
2023-01-03T16:43:08.062Z,4.28
2023-01-03T16:45:39.694Z,3.70
2023-01-03T16:48:16.025Z,3.60
2023-01-03T16:50:42.423Z,3.53
2023-01-03T16:53:09.602Z,3.78
2023-01-03T16:55:38.959Z,3.70
2023-01-03T17:00:34.066Z,4.28
2023-01-03T17:03:01.441Z,4.33
2023-01-03T17:05:29.437Z,4.05
2023-01-03T17:08:04.953Z,4.50
2023-01-03T17:10:35.289Z,3.90
2023-01-03T17:13:07.037Z,4.20
2023-01-03T17:15:38.790Z,3.95
2023-01-03T17:18:05.254Z,4.10
2023-01-03T17:20:31.771Z,4.20
2023-01-03T17:23:00.314Z,4.55
2023-01-03T17:25:26.892Z,4.50
2023-01-03T17:27:56.349Z,3.85
2023-01-03T17:32:50.290Z,3.53
2023-01-03T17:35:17.081Z,3.78
2023-01-03T17:38:14.183Z,3.70
2023-01-03T17:40:34.178Z,3.90
2023-01-03T17:43:01.674Z,3.55
2023-01-03T17:45:47.104Z,3.67
2023-01-03T17:48:32.868Z,3.97
2023-01-03T17:51:01.395Z,3.70
2023-01-03T17:53:28.158Z,4.13
2023-01-03T17:55:54.625Z,3.88
2023-01-03T17:58:35.281Z,3.70
2023-01-03T18:01:02.710Z,3.90
2023-01-03T18:03:30.606Z,3.92
2023-01-03T18:05:57.907Z,3.95
2023-01-03T18:08:24.734Z,3.60
2023-01-03T18:10:54.274Z,3.28
2023-01-03T18:13:29.907Z,3.25
2023-01-03T18:15:56.864Z,3.10
2023-01-03T18:18:24.639Z,3.10
2023-01-03T18:20:51.710Z,3.35
2023-01-03T18:23:33.295Z,2.70
2023-01-03T18:26:06.392Z,3.03
2023-01-03T18:28:32.955Z,3.13
2023-01-03T18:30:59.492Z,2.65
2023-01-03T18:33:26.190Z,2.47
2023-01-03T18:35:53.159Z,3.00
2023-01-03T18:38:48.906Z,2.70
2023-01-03T18:41:18.860Z,2.65
2023-01-03T18:43:45.513Z,3.00
2023-01-03T18:46:15.772Z,3.03
2023-01-03T18:48:42.702Z,3.00
2023-01-03T18:51:14.114Z,3.00
2023-01-03T18:53:41.908Z,3.10
2023-01-03T18:56:32.807Z,2.78
2023-01-03T18:59:08.221Z,2.60
2023-01-03T19:01:34.776Z,2.30
2023-01-03T19:04:01.326Z,2.85
2023-01-03T19:06:30.573Z,2.90
2023-01-03T19:11:30.261Z,2.90
2023-01-03T19:13:59.864Z,2.30
2023-01-03T19:16:30.348Z,2.42
2023-01-03T19:18:57.125Z,2.30
2023-01-03T19:21:24.576Z,2.53
2023-01-03T19:24:21.695Z,3.10
2023-01-03T19:26:55.036Z,2.30
2023-01-03T19:29:26.523Z,2.30
2023-01-03T19:31:55.177Z,2.47
2023-01-03T19:34:23.936Z,2.22
2023-01-03T19:36:50.833Z,2.40
2023-01-03T19:39:24.008Z,2.30
2023-01-03T19:42:13.391Z,2.42
2023-01-03T19:44:40.115Z,2.50
2023-01-03T19:47:12.175Z,2.20
2023-01-03T19:49:38.614Z,2.22
2023-01-03T19:52:05.012Z,2.28
2023-01-03T19:54:31.452Z,2.50
2023-01-03T19:56:59.580Z,2.65
2023-01-03T19:59:29.192Z,2.40
2023-01-03T20:02:24.033Z,2.47
2023-01-03T20:04:42.809Z,2.22
2023-01-03T20:07:13.623Z,3.10
2023-01-03T20:09:40.102Z,2.53
2023-01-03T20:12:11.100Z,2.85
2023-01-03T20:14:38.131Z,2.50
2023-01-03T20:17:04.573Z,2.75
2023-01-03T20:19:31.268Z,2.60
2023-01-03T20:21:57.796Z,2.58
2023-01-03T20:24:27.159Z,2.17
2023-01-03T20:26:53.757Z,2.53
2023-01-03T20:29:20.473Z,2.67
2023-01-03T20:31:47.020Z,2.45
2023-01-03T20:34:13.513Z,2.28
2023-01-03T20:36:45.340Z,2.20
2023-01-03T20:39:22.220Z,2.17
2023-01-03T20:41:48.635Z,2.15
2023-01-03T20:44:15.066Z,2.00
2023-01-03T20:46:41.543Z,1.95
2023-01-03T20:49:17.745Z,2.58
2023-01-03T20:51:44.473Z,2.25
2023-01-03T20:54:11.100Z,1.83
2023-01-03T20:56:37.677Z,1.88
2023-01-03T20:59:04.690Z,2.13
2023-01-03T21:01:31.387Z,2.28
2023-01-03T21:03:57.923Z,2.17
2023-01-03T21:06:26.844Z,1.95
2023-01-03T21:08:56.553Z,1.85
2023-01-03T21:11:31.679Z,1.83
2023-01-03T21:14:00.392Z,1.60
2023-01-03T21:16:41.663Z,2.22
2023-01-03T21:19:11.045Z,1.40
2023-01-03T21:24:04.532Z,1.30
2023-01-03T21:26:31.349Z,1.83
2023-01-03T21:28:58.201Z,1.60
2023-01-03T21:31:24.854Z,1.70
2023-01-03T21:33:51.998Z,1.67
2023-01-03T21:36:23.442Z,2.00
2023-01-03T21:38:50.951Z,1.50
2023-01-03T21:41:22.919Z,1.80
2023-01-03T21:43:49.379Z,1.73
2023-01-03T21:46:17.734Z,2.20
2023-01-03T21:48:44.940Z,6.53
2023-01-03T21:51:12.833Z,1.73
2023-01-03T21:53:39.600Z,1.80
2023-01-03T21:56:10.469Z,2.08
2023-01-03T21:58:36.997Z,1.95
2023-01-03T22:01:18.788Z,1.77
2023-01-03T22:04:04.084Z,1.77
2023-01-03T22:06:30.643Z,1.80
2023-01-03T22:08:57.159Z,2.60
2023-01-03T22:11:24.772Z,2.05
2023-01-03T22:13:51.223Z,2.20
2023-01-03T22:16:18.252Z,1.98
2023-01-03T22:18:44.773Z,1.95
2023-01-03T22:21:11.890Z,1.48
2023-01-03T22:23:38.954Z,1.70
2023-01-03T22:26:13.195Z,1.98
2023-01-03T22:28:42.016Z,2.05
2023-01-03T22:31:10.903Z,1.77
2023-01-03T22:33:37.432Z,1.65
2023-01-03T22:36:04.240Z,1.38
2023-01-03T22:38:30.663Z,1.77
2023-01-03T22:40:57.093Z,1.60
2023-01-03T22:43:23.563Z,1.42
2023-01-03T22:45:50.011Z,1.55
2023-01-03T22:48:16.619Z,1.67
2023-01-03T22:50:43.061Z,1.30
2023-01-03T22:53:09.533Z,1.33
2023-01-03T22:56:12.526Z,1.30
2023-01-03T22:58:39.007Z,1.35
2023-01-03T23:01:16.591Z,1.50
2023-01-03T23:03:44.170Z,1.50
2023-01-03T23:06:15.965Z,1.42
2023-01-03T23:08:42.661Z,1.20
2023-01-03T23:11:34.498Z,1.33
2023-01-03T23:14:04.273Z,1.20
2023-01-03T23:19:01.403Z,1.58
2023-01-03T23:21:27.821Z,1.20
2023-01-03T23:23:54.300Z,1.40
2023-01-03T23:26:20.727Z,1.05
2023-01-03T23:28:47.256Z,1.63
2023-01-03T23:31:13.706Z,1.40
2023-01-03T23:33:42.202Z,1.48
2023-01-03T23:36:11.025Z,1.57
2023-01-03T23:38:37.449Z,2.80
2023-01-03T23:41:08.140Z,1.80
2023-01-03T23:43:34.641Z,2.03
2023-01-03T23:46:01.264Z,2.40
2023-01-03T23:48:27.885Z,1.88
2023-01-03T23:51:03.884Z,2.00
2023-01-03T23:53:30.549Z,1.83
2023-01-03T23:55:57.321Z,2.00
2023-01-03T23:58:24.007Z,1.90
